sensor_id;sensor_type;location;lat;lon;timestamp;P1;durP1;ratioP1;P2;durP2;ratioP2
13356;SDS011;6747;56.456;-3.120;2022-10-31T00:00:58;4.70;;;1.60;;
13356;SDS011;6747;56.456;-3.120;2022-10-31T00:03:27;4.70;;;1.42;;
13356;SDS011;6747;56.456;-3.120;2022-10-31T00:05:55;3.67;;;1.33;;
13356;SDS011;6747;56.456;-3.120;2022-10-31T00:08:22;4.85;;;1.70;;
13356;SDS011;6747;56.456;-3.120;2022-10-31T00:10:50;3.63;;;1.52;;
13356;SDS011;6747;56.456;-3.120;2022-10-31T00:13:17;2.92;;;1.20;;
13356;SDS011;6747;56.456;-3.120;2022-10-31T00:15:45;2.00;;;1.20;;
13356;SDS011;6747;56.456;-3.120;2022-10-31T00:18:12;8.98;;;1.30;;
13356;SDS011;6747;56.456;-3.120;2022-10-31T00:20:41;2.35;;;1.20;;
13356;SDS011;6747;56.456;-3.120;2022-10-31T00:23:09;3.70;;;1.30;;
13356;SDS011;6747;56.456;-3.120;2022-10-31T00:25:36;2.92;;;1.65;;
13356;SDS011;6747;56.456;-3.120;2022-10-31T00:28:04;5.32;;;1.67;;
13356;SDS011;6747;56.456;-3.120;2022-10-31T00:30:32;3.30;;;1.10;;
13356;SDS011;6747;56.456;-3.120;2022-10-31T00:32:59;4.50;;;1.15;;
13356;SDS011;6747;56.456;-3.120;2022-10-31T00:41:04;2.42;;;1.20;;
13356;SDS011;6747;56.456;-3.120;2022-10-31T00:43:31;4.65;;;1.40;;
13356;SDS011;6747;56.456;-3.120;2022-10-31T00:51:33;3.35;;;1.35;;
13356;SDS011;6747;56.456;-3.120;2022-10-31T00:54:02;5.10;;;1.33;;
13356;SDS011;6747;56.456;-3.120;2022-10-31T00:59:34;4.60;;;1.40;;
13356;SDS011;6747;56.456;-3.120;2022-10-31T01:02:01;4.20;;;1.40;;
13356;SDS011;6747;56.456;-3.120;2022-10-31T01:04:30;5.72;;;1.30;;
13356;SDS011;6747;56.456;-3.120;2022-10-31T01:06:57;2.95;;;1.40;;
13356;SDS011;6747;56.456;-3.120;2022-10-31T01:09:25;1.65;;;1.02;;
13356;SDS011;6747;56.456;-3.120;2022-10-31T01:17:44;1.92;;;1.05;;
13356;SDS011;6747;56.456;-3.120;2022-10-31T01:20:12;6.68;;;1.52;;
13356;SDS011;6747;56.456;-3.120;2022-10-31T01:22:40;2.42;;;1.05;;
13356;SDS011;6747;56.456;-3.120;2022-10-31T01:25:07;3.75;;;1.10;;
13356;SDS011;6747;56.456;-3.120;2022-10-31T01:27:35;4.80;;;1.35;;
13356;SDS011;6747;56.456;-3.120;2022-10-31T01:30:03;5.50;;;1.55;;
13356;SDS011;6747;56.456;-3.120;2022-10-31T01:32:30;4.38;;;1.23;;
13356;SDS011;6747;56.456;-3.120;2022-10-31T01:37:47;3.25;;;1.08;;
13356;SDS011;6747;56.456;-3.120;2022-10-31T01:40:14;3.92;;;1.25;;
13356;SDS011;6747;56.456;-3.120;2022-10-31T01:42:41;5.25;;;1.55;;
13356;SDS011;6747;56.456;-3.120;2022-10-31T01:45:10;1.80;;;1.00;;
13356;SDS011;6747;56.456;-3.120;2022-10-31T01:53:18;4.03;;;1.10;;
13356;SDS011;6747;56.456;-3.120;2022-10-31T01:58:33;5.50;;;1.40;;
13356;SDS011;6747;56.456;-3.120;2022-10-31T02:01:00;5.20;;;1.02;;
13356;SDS011;6747;56.456;-3.120;2022-10-31T02:03:28;3.72;;;1.27;;
13356;SDS011;6747;56.456;-3.120;2022-10-31T02:08:44;6.65;;;1.40;;
13356;SDS011;6747;56.456;-3.120;2022-10-31T02:11:11;2.50;;;1.08;;
13356;SDS011;6747;56.456;-3.120;2022-10-31T02:19:18;3.40;;;1.45;;
13356;SDS011;6747;56.456;-3.120;2022-10-31T02:21:49;3.25;;;1.27;;
13356;SDS011;6747;56.456;-3.120;2022-10-31T02:24:34;3.05;;;1.35;;
13356;SDS011;6747;56.456;-3.120;2022-10-31T02:27:21;4.50;;;1.50;;
13356;SDS011;6747;56.456;-3.120;2022-10-31T02:30:10;5.13;;;1.50;;
13356;SDS011;6747;56.456;-3.120;2022-10-31T02:32:43;6.93;;;1.65;;
13356;SDS011;6747;56.456;-3.120;2022-10-31T02:35:15;5.82;;;1.95;;
13356;SDS011;6747;56.456;-3.120;2022-10-31T02:40:43;4.05;;;1.42;;
13356;SDS011;6747;56.456;-3.120;2022-10-31T02:43:15;4.75;;;1.50;;
13356;SDS011;6747;56.456;-3.120;2022-10-31T02:45:45;6.10;;;1.75;;
13356;SDS011;6747;56.456;-3.120;2022-10-31T02:48:18;3.40;;;1.40;;
13356;SDS011;6747;56.456;-3.120;2022-10-31T02:50:48;3.72;;;1.50;;
13356;SDS011;6747;56.456;-3.120;2022-10-31T02:53:18;5.68;;;1.98;;
13356;SDS011;6747;56.456;-3.120;2022-10-31T02:55:51;4.03;;;1.23;;
13356;SDS011;6747;56.456;-3.120;2022-10-31T02:58:21;2.50;;;1.30;;
13356;SDS011;6747;56.456;-3.120;2022-10-31T03:00:54;8.10;;;1.60;;
13356;SDS011;6747;56.456;-3.120;2022-10-31T03:03:26;8.32;;;1.60;;
13356;SDS011;6747;56.456;-3.120;2022-10-31T03:05:57;7.03;;;1.60;;
13356;SDS011;6747;56.456;-3.120;2022-10-31T03:08:27;6.65;;;1.73;;
13356;SDS011;6747;56.456;-3.120;2022-10-31T03:10:57;4.88;;;2.03;;
13356;SDS011;6747;56.456;-3.120;2022-10-31T03:18:44;10.10;;;1.88;;
13356;SDS011;6747;56.456;-3.120;2022-10-31T03:21:16;4.68;;;1.48;;
13356;SDS011;6747;56.456;-3.120;2022-10-31T03:26:34;4.60;;;1.35;;
13356;SDS011;6747;56.456;-3.120;2022-10-31T03:29:03;4.20;;;1.70;;
13356;SDS011;6747;56.456;-3.120;2022-10-31T03:31:32;3.28;;;1.90;;
13356;SDS011;6747;56.456;-3.120;2022-10-31T03:34:02;4.10;;;1.52;;
13356;SDS011;6747;56.456;-3.120;2022-10-31T03:36:30;6.03;;;1.60;;
13356;SDS011;6747;56.456;-3.120;2022-10-31T03:38:58;5.03;;;1.75;;
13356;SDS011;6747;56.456;-3.120;2022-10-31T03:41:28;6.22;;;1.58;;
13356;SDS011;6747;56.456;-3.120;2022-10-31T03:44:00;2.67;;;1.45;;
13356;SDS011;6747;56.456;-3.120;2022-10-31T03:46:29;3.92;;;1.35;;
13356;SDS011;6747;56.456;-3.120;2022-10-31T03:48:56;2.35;;;1.45;;
13356;SDS011;6747;56.456;-3.120;2022-10-31T03:51:26;5.60;;;1.40;;
13356;SDS011;6747;56.456;-3.120;2022-10-31T03:53:56;4.05;;;1.45;;
13356;SDS011;6747;56.456;-3.120;2022-10-31T03:56:27;4.57;;;1.67;;
13356;SDS011;6747;56.456;-3.120;2022-10-31T03:58:58;4.47;;;1.40;;
13356;SDS011;6747;56.456;-3.120;2022-10-31T04:01:27;4.50;;;1.50;;
13356;SDS011;6747;56.456;-3.120;2022-10-31T04:07:01;4.70;;;1.52;;
13356;SDS011;6747;56.456;-3.120;2022-10-31T04:09:29;4.72;;;1.90;;
13356;SDS011;6747;56.456;-3.120;2022-10-31T04:11:59;6.43;;;1.60;;
13356;SDS011;6747;56.456;-3.120;2022-10-31T04:14:29;5.95;;;1.80;;
13356;SDS011;6747;56.456;-3.120;2022-10-31T04:16:58;3.45;;;1.35;;
13356;SDS011;6747;56.456;-3.120;2022-10-31T04:19:26;7.80;;;2.00;;
13356;SDS011;6747;56.456;-3.120;2022-10-31T04:21:54;7.38;;;1.50;;
13356;SDS011;6747;56.456;-3.120;2022-10-31T04:24:23;9.38;;;1.65;;
13356;SDS011;6747;56.456;-3.120;2022-10-31T04:26:50;5.07;;;1.77;;
13356;SDS011;6747;56.456;-3.120;2022-10-31T04:29:18;5.32;;;1.80;;
13356;SDS011;6747;56.456;-3.120;2022-10-31T04:31:45;5.43;;;1.80;;
13356;SDS011;6747;56.456;-3.120;2022-10-31T04:34:15;5.43;;;1.90;;
13356;SDS011;6747;56.456;-3.120;2022-10-31T04:36:42;4.75;;;1.67;;
13356;SDS011;6747;56.456;-3.120;2022-10-31T04:39:10;6.70;;;2.03;;
13356;SDS011;6747;56.456;-3.120;2022-10-31T04:41:39;6.03;;;1.83;;
13356;SDS011;6747;56.456;-3.120;2022-10-31T04:44:07;7.57;;;1.80;;
13356;SDS011;6747;56.456;-3.120;2022-10-31T04:49:06;4.82;;;1.98;;
13356;SDS011;6747;56.456;-3.120;2022-10-31T04:51:33;6.65;;;2.00;;
13356;SDS011;6747;56.456;-3.120;2022-10-31T04:54:01;6.10;;;1.88;;
13356;SDS011;6747;56.456;-3.120;2022-10-31T04:59:35;7.43;;;1.67;;
13356;SDS011;6747;56.456;-3.120;2022-10-31T05:02:03;6.60;;;1.80;;
13356;SDS011;6747;56.456;-3.120;2022-10-31T05:10:06;5.07;;;2.05;;
13356;SDS011;6747;56.456;-3.120;2022-10-31T05:12:34;6.20;;;1.50;;
13356;SDS011;6747;56.456;-3.120;2022-10-31T05:15:05;5.55;;;1.65;;
13356;SDS011;6747;56.456;-3.120;2022-10-31T05:17:33;10.48;;;2.15;;
13356;SDS011;6747;56.456;-3.120;2022-10-31T05:20:00;7.13;;;2.10;;
13356;SDS011;6747;56.456;-3.120;2022-10-31T05:22:28;7.75;;;2.10;;
13356;SDS011;6747;56.456;-3.120;2022-10-31T05:24:55;4.82;;;1.65;;
13356;SDS011;6747;56.456;-3.120;2022-10-31T05:27:23;3.30;;;1.52;;
13356;SDS011;6747;56.456;-3.120;2022-10-31T05:29:50;7.63;;;2.15;;
13356;SDS011;6747;56.456;-3.120;2022-10-31T05:32:19;7.70;;;2.00;;
13356;SDS011;6747;56.456;-3.120;2022-10-31T05:40:06;6.47;;;1.95;;
13356;SDS011;6747;56.456;-3.120;2022-10-31T05:42:34;6.65;;;1.80;;
13356;SDS011;6747;56.456;-3.120;2022-10-31T05:47:52;7.30;;;2.08;;
13356;SDS011;6747;56.456;-3.120;2022-10-31T05:50:20;7.40;;;2.10;;
13356;SDS011;6747;56.456;-3.120;2022-10-31T05:52:47;6.30;;;1.73;;
13356;SDS011;6747;56.456;-3.120;2022-10-31T06:01:06;6.82;;;1.73;;
13356;SDS011;6747;56.456;-3.120;2022-10-31T06:06:24;8.70;;;1.70;;
13356;SDS011;6747;56.456;-3.120;2022-10-31T06:08:51;7.53;;;1.88;;
13356;SDS011;6747;56.456;-3.120;2022-10-31T06:11:19;3.60;;;1.60;;
13356;SDS011;6747;56.456;-3.120;2022-10-31T06:16:49;6.03;;;2.15;;
13356;SDS011;6747;56.456;-3.120;2022-10-31T06:19:18;7.95;;;1.70;;
13356;SDS011;6747;56.456;-3.120;2022-10-31T06:21:47;9.13;;;1.73;;
13356;SDS011;6747;56.456;-3.120;2022-10-31T06:26:45;5.75;;;1.65;;
13356;SDS011;6747;56.456;-3.120;2022-10-31T06:29:13;8.68;;;1.65;;
13356;SDS011;6747;56.456;-3.120;2022-10-31T06:31:41;5.68;;;1.58;;
13356;SDS011;6747;56.456;-3.120;2022-10-31T06:34:08;6.40;;;1.52;;
13356;SDS011;6747;56.456;-3.120;2022-10-31T06:36:37;6.93;;;1.60;;
13356;SDS011;6747;56.456;-3.120;2022-10-31T06:39:06;4.88;;;1.83;;
13356;SDS011;6747;56.456;-3.120;2022-10-31T06:41:33;4.93;;;1.80;;
13356;SDS011;6747;56.456;-3.120;2022-10-31T06:47:05;3.47;;;1.63;;
13356;SDS011;6747;56.456;-3.120;2022-10-31T06:49:32;4.72;;;1.58;;
13356;SDS011;6747;56.456;-3.120;2022-10-31T06:52:00;5.55;;;2.10;;
13356;SDS011;6747;56.456;-3.120;2022-10-31T06:57:33;6.03;;;1.50;;
13356;SDS011;6747;56.456;-3.120;2022-10-31T07:00:01;9.10;;;2.20;;
13356;SDS011;6747;56.456;-3.120;2022-10-31T07:02:28;4.63;;;1.48;;
13356;SDS011;6747;56.456;-3.120;2022-10-31T07:10:50;6.28;;;1.83;;
13356;SDS011;6747;56.456;-3.120;2022-10-31T07:13:20;5.03;;;1.40;;
13356;SDS011;6747;56.456;-3.120;2022-10-31T07:21:41;6.20;;;1.52;;
13356;SDS011;6747;56.456;-3.120;2022-10-31T07:30:24;7.25;;;1.40;;
13356;SDS011;6747;56.456;-3.120;2022-10-31T07:32:52;3.83;;;1.42;;
13356;SDS011;6747;56.456;-3.120;2022-10-31T07:38:24;5.38;;;1.27;;
13356;SDS011;6747;56.456;-3.120;2022-10-31T07:40:51;3.33;;;1.23;;
13356;SDS011;6747;56.456;-3.120;2022-10-31T07:43:19;2.40;;;1.10;;
13356;SDS011;6747;56.456;-3.120;2022-10-31T07:51:26;7.00;;;1.55;;
13356;SDS011;6747;56.456;-3.120;2022-10-31T07:56:40;5.13;;;1.73;;
13356;SDS011;6747;56.456;-3.120;2022-10-31T07:59:07;2.25;;;1.55;;
13356;SDS011;6747;56.456;-3.120;2022-10-31T08:01:35;3.92;;;1.27;;
13356;SDS011;6747;56.456;-3.120;2022-10-31T08:07:08;2.42;;;1.48;;
13356;SDS011;6747;56.456;-3.120;2022-10-31T08:09:35;5.30;;;1.77;;
13356;SDS011;6747;56.456;-3.120;2022-10-31T08:12:03;5.68;;;1.92;;
13356;SDS011;6747;56.456;-3.120;2022-10-31T08:17:34;4.32;;;2.00;;
13356;SDS011;6747;56.456;-3.120;2022-10-31T08:20:02;3.90;;;1.60;;
13356;SDS011;6747;56.456;-3.120;2022-10-31T08:22:31;4.35;;;1.80;;
13356;SDS011;6747;56.456;-3.120;2022-10-31T08:28:02;5.07;;;1.63;;
13356;SDS011;6747;56.456;-3.120;2022-10-31T08:30:31;6.22;;;1.60;;
13356;SDS011;6747;56.456;-3.120;2022-10-31T08:32:59;4.18;;;1.58;;
13356;SDS011;6747;56.456;-3.120;2022-10-31T08:38:32;4.88;;;1.67;;
13356;SDS011;6747;56.456;-3.120;2022-10-31T08:40:59;5.80;;;1.42;;
13356;SDS011;6747;56.456;-3.120;2022-10-31T08:43:26;7.63;;;1.50;;
13356;SDS011;6747;56.456;-3.120;2022-10-31T08:48:57;6.15;;;2.17;;
13356;SDS011;6747;56.456;-3.120;2022-10-31T08:51:24;4.90;;;1.65;;
13356;SDS011;6747;56.456;-3.120;2022-10-31T08:56:41;6.22;;;1.88;;
13356;SDS011;6747;56.456;-3.120;2022-10-31T08:59:09;5.85;;;1.98;;
13356;SDS011;6747;56.456;-3.120;2022-10-31T09:01:36;11.30;;;2.55;;
13356;SDS011;6747;56.456;-3.120;2022-10-31T09:15:47;6.68;;;1.77;;
13356;SDS011;6747;56.456;-3.120;2022-10-31T09:18:16;8.18;;;2.28;;
13356;SDS011;6747;56.456;-3.120;2022-10-31T09:23:47;6.35;;;1.58;;
13356;SDS011;6747;56.456;-3.120;2022-10-31T09:26:14;6.80;;;1.90;;
13356;SDS011;6747;56.456;-3.120;2022-10-31T09:28:42;7.35;;;1.70;;
13356;SDS011;6747;56.456;-3.120;2022-10-31T09:31:11;4.22;;;1.60;;
13356;SDS011;6747;56.456;-3.120;2022-10-31T09:36:42;5.07;;;1.45;;
13356;SDS011;6747;56.456;-3.120;2022-10-31T09:39:12;5.97;;;2.03;;
13356;SDS011;6747;56.456;-3.120;2022-10-31T09:41:55;4.50;;;1.38;;
13356;SDS011;6747;56.456;-3.120;2022-10-31T09:46:56;4.53;;;1.40;;
13356;SDS011;6747;56.456;-3.120;2022-10-31T09:49:33;4.30;;;1.63;;
13356;SDS011;6747;56.456;-3.120;2022-10-31T09:52:03;7.35;;;2.08;;
13356;SDS011;6747;56.456;-3.120;2022-10-31T10:00:04;7.15;;;1.92;;
13356;SDS011;6747;56.456;-3.120;2022-10-31T10:02:34;6.68;;;1.90;;
13356;SDS011;6747;56.456;-3.120;2022-10-31T10:10:54;6.63;;;1.80;;
13356;SDS011;6747;56.456;-3.120;2022-10-31T10:16:13;10.98;;;2.30;;
13356;SDS011;6747;56.456;-3.120;2022-10-31T10:18:47;8.35;;;2.55;;
13356;SDS011;6747;56.456;-3.120;2022-10-31T10:27:10;2.53;;;1.90;;
13356;SDS011;6747;56.456;-3.120;2022-10-31T10:29:40;9.10;;;2.28;;
13356;SDS011;6747;56.456;-3.120;2022-10-31T10:32:25;5.88;;;1.80;;
13356;SDS011;6747;56.456;-3.120;2022-10-31T10:34:57;5.38;;;1.65;;
13356;SDS011;6747;56.456;-3.120;2022-10-31T10:40:30;6.82;;;1.67;;
13356;SDS011;6747;56.456;-3.120;2022-10-31T10:43:07;4.88;;;1.90;;
13356;SDS011;6747;56.456;-3.120;2022-10-31T10:45:48;7.78;;;2.25;;
13356;SDS011;6747;56.456;-3.120;2022-10-31T10:48:38;8.45;;;2.17;;
13356;SDS011;6747;56.456;-3.120;2022-10-31T10:51:08;13.18;;;3.75;;
13356;SDS011;6747;56.456;-3.120;2022-10-31T10:53:44;14.13;;;7.88;;
13356;SDS011;6747;56.456;-3.120;2022-10-31T10:56:30;9.68;;;4.28;;
13356;SDS011;6747;56.456;-3.120;2022-10-31T10:59:00;4.88;;;2.47;;
13356;SDS011;6747;56.456;-3.120;2022-10-31T11:01:28;5.60;;;2.75;;
13356;SDS011;6747;56.456;-3.120;2022-10-31T11:06:29;4.90;;;1.80;;
13356;SDS011;6747;56.456;-3.120;2022-10-31T11:11:44;3.72;;;1.88;;
13356;SDS011;6747;56.456;-3.120;2022-10-31T11:14:12;6.78;;;2.40;;
13356;SDS011;6747;56.456;-3.120;2022-10-31T11:19:14;6.40;;;1.90;;
13356;SDS011;6747;56.456;-3.120;2022-10-31T11:21:44;6.00;;;1.85;;
13356;SDS011;6747;56.456;-3.120;2022-10-31T11:24:16;5.72;;;2.20;;
13356;SDS011;6747;56.456;-3.120;2022-10-31T11:26:44;5.30;;;2.10;;
13356;SDS011;6747;56.456;-3.120;2022-10-31T11:29:13;6.93;;;2.45;;
13356;SDS011;6747;56.456;-3.120;2022-10-31T11:31:41;8.27;;;2.05;;
13356;SDS011;6747;56.456;-3.120;2022-10-31T11:34:13;8.23;;;2.30;;
13356;SDS011;6747;56.456;-3.120;2022-10-31T11:36:42;7.05;;;1.95;;
13356;SDS011;6747;56.456;-3.120;2022-10-31T11:39:15;8.15;;;2.45;;
13356;SDS011;6747;56.456;-3.120;2022-10-31T11:41:44;7.95;;;2.05;;
13356;SDS011;6747;56.456;-3.120;2022-10-31T11:44:13;4.85;;;2.28;;
13356;SDS011;6747;56.456;-3.120;2022-10-31T11:46:42;6.63;;;2.22;;
13356;SDS011;6747;56.456;-3.120;2022-10-31T11:49:17;10.77;;;6.32;;
13356;SDS011;6747;56.456;-3.120;2022-10-31T11:51:47;6.03;;;4.07;;
13356;SDS011;6747;56.456;-3.120;2022-10-31T11:54:22;7.65;;;2.33;;
13356;SDS011;6747;56.456;-3.120;2022-10-31T11:56:50;4.65;;;2.22;;
13356;SDS011;6747;56.456;-3.120;2022-10-31T12:02:21;10.27;;;2.40;;
13356;SDS011;6747;56.456;-3.120;2022-10-31T12:04:50;6.32;;;2.50;;
13356;SDS011;6747;56.456;-3.120;2022-10-31T12:07:19;7.70;;;2.50;;
13356;SDS011;6747;56.456;-3.120;2022-10-31T12:09:49;5.07;;;2.45;;
13356;SDS011;6747;56.456;-3.120;2022-10-31T12:12:26;7.78;;;2.05;;
13356;SDS011;6747;56.456;-3.120;2022-10-31T12:20:30;5.28;;;2.50;;
13356;SDS011;6747;56.456;-3.120;2022-10-31T12:23:01;6.25;;;2.25;;
13356;SDS011;6747;56.456;-3.120;2022-10-31T12:28:41;6.05;;;1.85;;
13356;SDS011;6747;56.456;-3.120;2022-10-31T12:31:13;5.88;;;1.45;;
13356;SDS011;6747;56.456;-3.120;2022-10-31T12:36:29;7.47;;;1.27;;
13356;SDS011;6747;56.456;-3.120;2022-10-31T12:39:02;2.75;;;0.95;;
13356;SDS011;6747;56.456;-3.120;2022-10-31T12:44:45;3.58;;;1.23;;
13356;SDS011;6747;56.456;-3.120;2022-10-31T12:47:29;4.88;;;1.30;;
13356;SDS011;6747;56.456;-3.120;2022-10-31T12:50:05;2.97;;;1.52;;
13356;SDS011;6747;56.456;-3.120;2022-10-31T12:52:43;3.47;;;1.02;;
13356;SDS011;6747;56.456;-3.120;2022-10-31T12:55:19;2.53;;;1.30;;
13356;SDS011;6747;56.456;-3.120;2022-10-31T13:03:29;2.90;;;1.05;;
13356;SDS011;6747;56.456;-3.120;2022-10-31T13:05:59;4.57;;;1.75;;
13356;SDS011;6747;56.456;-3.120;2022-10-31T13:08:32;4.72;;;1.20;;
13356;SDS011;6747;56.456;-3.120;2022-10-31T13:11:03;3.78;;;1.27;;
13356;SDS011;6747;56.456;-3.120;2022-10-31T13:16:37;3.03;;;1.38;;
13356;SDS011;6747;56.456;-3.120;2022-10-31T13:19:08;6.03;;;1.30;;
13356;SDS011;6747;56.456;-3.120;2022-10-31T13:21:39;3.15;;;1.20;;
13356;SDS011;6747;56.456;-3.120;2022-10-31T13:24:12;2.95;;;1.60;;
13356;SDS011;6747;56.456;-3.120;2022-10-31T13:29:44;3.60;;;1.35;;
13356;SDS011;6747;56.456;-3.120;2022-10-31T13:32:13;2.78;;;0.98;;
13356;SDS011;6747;56.456;-3.120;2022-10-31T13:37:29;3.85;;;1.30;;
13356;SDS011;6747;56.456;-3.120;2022-10-31T13:40:02;5.13;;;1.08;;
13356;SDS011;6747;56.456;-3.120;2022-10-31T13:42:37;2.58;;;1.48;;
13356;SDS011;6747;56.456;-3.120;2022-10-31T13:48:17;3.08;;;0.90;;
13356;SDS011;6747;56.456;-3.120;2022-10-31T13:50:54;3.33;;;1.30;;
13356;SDS011;6747;56.456;-3.120;2022-10-31T13:53:35;1.38;;;0.60;;
13356;SDS011;6747;56.456;-3.120;2022-10-31T14:01:36;3.47;;;0.70;;
13356;SDS011;6747;56.456;-3.120;2022-10-31T14:04:05;3.95;;;1.02;;
13356;SDS011;6747;56.456;-3.120;2022-10-31T14:06:36;1.42;;;0.93;;
13356;SDS011;6747;56.456;-3.120;2022-10-31T14:09:14;5.25;;;1.60;;
13356;SDS011;6747;56.456;-3.120;2022-10-31T14:11:42;3.03;;;0.85;;
13356;SDS011;6747;56.456;-3.120;2022-10-31T14:17:00;4.53;;;1.30;;
13356;SDS011;6747;56.456;-3.120;2022-10-31T14:22:19;1.83;;;0.82;;
13356;SDS011;6747;56.456;-3.120;2022-10-31T14:24:49;2.50;;;1.20;;
13356;SDS011;6747;56.456;-3.120;2022-10-31T14:27:42;4.20;;;1.55;;
13356;SDS011;6747;56.456;-3.120;2022-10-31T14:30:14;4.60;;;1.13;;
13356;SDS011;6747;56.456;-3.120;2022-10-31T14:32:42;3.88;;;0.93;;
13356;SDS011;6747;56.456;-3.120;2022-10-31T14:38:08;3.65;;;1.30;;
13356;SDS011;6747;56.456;-3.120;2022-10-31T14:40:46;2.05;;;1.08;;
13356;SDS011;6747;56.456;-3.120;2022-10-31T14:43:20;2.97;;;1.30;;
13356;SDS011;6747;56.456;-3.120;2022-10-31T14:45:53;4.20;;;1.50;;
13356;SDS011;6747;56.456;-3.120;2022-10-31T14:48:31;5.15;;;1.40;;
13356;SDS011;6747;56.456;-3.120;2022-10-31T14:51:00;3.95;;;1.25;;
13356;SDS011;6747;56.456;-3.120;2022-10-31T14:53:29;5.38;;;1.70;;
13356;SDS011;6747;56.456;-3.120;2022-10-31T14:55:59;4.65;;;1.65;;
13356;SDS011;6747;56.456;-3.120;2022-10-31T14:58:28;6.25;;;1.90;;
13356;SDS011;6747;56.456;-3.120;2022-10-31T15:01:02;5.35;;;1.95;;
13356;SDS011;6747;56.456;-3.120;2022-10-31T15:03:30;8.25;;;2.40;;
13356;SDS011;6747;56.456;-3.120;2022-10-31T15:08:47;6.25;;;1.83;;
13356;SDS011;6747;56.456;-3.120;2022-10-31T15:11:16;6.00;;;2.30;;
13356;SDS011;6747;56.456;-3.120;2022-10-31T15:13:45;4.93;;;2.00;;
13356;SDS011;6747;56.456;-3.120;2022-10-31T15:16:15;7.55;;;1.98;;
13356;SDS011;6747;56.456;-3.120;2022-10-31T15:18:53;3.88;;;1.60;;
13356;SDS011;6747;56.456;-3.120;2022-10-31T15:21:21;4.50;;;1.58;;
13356;SDS011;6747;56.456;-3.120;2022-10-31T15:23:51;3.58;;;1.60;;
13356;SDS011;6747;56.456;-3.120;2022-10-31T15:26:21;7.63;;;2.00;;
13356;SDS011;6747;56.456;-3.120;2022-10-31T15:31:34;5.78;;;1.85;;
13356;SDS011;6747;56.456;-3.120;2022-10-31T15:34:04;6.25;;;1.90;;
13356;SDS011;6747;56.456;-3.120;2022-10-31T15:39:35;6.05;;;1.70;;
13356;SDS011;6747;56.456;-3.120;2022-10-31T15:42:04;5.18;;;1.75;;
13356;SDS011;6747;56.456;-3.120;2022-10-31T15:44:35;4.15;;;1.92;;
13356;SDS011;6747;56.456;-3.120;2022-10-31T15:47:03;4.20;;;1.42;;
13356;SDS011;6747;56.456;-3.120;2022-10-31T15:49:33;5.53;;;1.90;;
13356;SDS011;6747;56.456;-3.120;2022-10-31T15:52:06;5.75;;;1.88;;
13356;SDS011;6747;56.456;-3.120;2022-10-31T15:57:25;7.25;;;1.65;;
13356;SDS011;6747;56.456;-3.120;2022-10-31T15:59:52;5.43;;;1.52;;
13356;SDS011;6747;56.456;-3.120;2022-10-31T16:02:21;9.80;;;2.33;;
13356;SDS011;6747;56.456;-3.120;2022-10-31T16:04:49;9.73;;;2.00;;
13356;SDS011;6747;56.456;-3.120;2022-10-31T16:07:17;6.22;;;1.55;;
13356;SDS011;6747;56.456;-3.120;2022-10-31T16:09:49;7.63;;;1.80;;
13356;SDS011;6747;56.456;-3.120;2022-10-31T16:12:16;6.60;;;2.10;;
13356;SDS011;6747;56.456;-3.120;2022-10-31T16:17:32;6.55;;;1.92;;
13356;SDS011;6747;56.456;-3.120;2022-10-31T16:20:00;7.20;;;2.38;;
13356;SDS011;6747;56.456;-3.120;2022-10-31T16:22:29;6.18;;;1.63;;
13356;SDS011;6747;56.456;-3.120;2022-10-31T16:25:01;6.63;;;1.90;;
13356;SDS011;6747;56.456;-3.120;2022-10-31T16:27:29;9.85;;;2.33;;
13356;SDS011;6747;56.456;-3.120;2022-10-31T16:29:58;7.15;;;2.03;;
13356;SDS011;6747;56.456;-3.120;2022-10-31T16:32:30;8.43;;;1.80;;
13356;SDS011;6747;56.456;-3.120;2022-10-31T16:38:05;4.97;;;1.75;;
13356;SDS011;6747;56.456;-3.120;2022-10-31T16:40:34;5.82;;;1.75;;
13356;SDS011;6747;56.456;-3.120;2022-10-31T16:43:02;7.60;;;2.47;;
13356;SDS011;6747;56.456;-3.120;2022-10-31T16:45:31;4.05;;;1.33;;
13356;SDS011;6747;56.456;-3.120;2022-10-31T16:48:01;5.63;;;1.70;;
13356;SDS011;6747;56.456;-3.120;2022-10-31T16:50:29;4.63;;;2.00;;
13356;SDS011;6747;56.456;-3.120;2022-10-31T16:52:56;7.95;;;1.90;;
13356;SDS011;6747;56.456;-3.120;2022-10-31T16:55:25;6.25;;;1.98;;
13356;SDS011;6747;56.456;-3.120;2022-10-31T16:57:54;8.32;;;1.75;;
13356;SDS011;6747;56.456;-3.120;2022-10-31T17:00:22;7.20;;;1.77;;
13356;SDS011;6747;56.456;-3.120;2022-10-31T17:02:50;2.97;;;1.42;;
13356;SDS011;6747;56.456;-3.120;2022-10-31T17:08:21;7.10;;;2.17;;
13356;SDS011;6747;56.456;-3.120;2022-10-31T17:10:52;6.28;;;2.08;;
13356;SDS011;6747;56.456;-3.120;2022-10-31T17:13:21;5.32;;;1.63;;
13356;SDS011;6747;56.456;-3.120;2022-10-31T17:15:50;4.85;;;1.67;;
13356;SDS011;6747;56.456;-3.120;2022-10-31T17:18:19;6.03;;;1.80;;
13356;SDS011;6747;56.456;-3.120;2022-10-31T17:20:46;5.15;;;1.92;;
13356;SDS011;6747;56.456;-3.120;2022-10-31T17:23:15;4.35;;;1.73;;
13356;SDS011;6747;56.456;-3.120;2022-10-31T17:25:42;6.53;;;1.70;;
13356;SDS011;6747;56.456;-3.120;2022-10-31T17:28:11;5.05;;;1.77;;
13356;SDS011;6747;56.456;-3.120;2022-10-31T17:30:39;8.07;;;2.00;;
13356;SDS011;6747;56.456;-3.120;2022-10-31T17:33:08;7.93;;;1.90;;
13356;SDS011;6747;56.456;-3.120;2022-10-31T17:35:36;10.90;;;1.73;;
13356;SDS011;6747;56.456;-3.120;2022-10-31T17:38:03;7.10;;;2.15;;
13356;SDS011;6747;56.456;-3.120;2022-10-31T17:40:30;4.38;;;1.67;;
13356;SDS011;6747;56.456;-3.120;2022-10-31T17:42:58;5.53;;;1.80;;
13356;SDS011;6747;56.456;-3.120;2022-10-31T17:50:46;6.30;;;1.77;;
13356;SDS011;6747;56.456;-3.120;2022-10-31T17:53:13;6.13;;;1.70;;
13356;SDS011;6747;56.456;-3.120;2022-10-31T18:01:30;5.68;;;1.77;;
13356;SDS011;6747;56.456;-3.120;2022-10-31T18:07:03;5.65;;;1.95;;
13356;SDS011;6747;56.456;-3.120;2022-10-31T18:09:31;4.25;;;1.83;;
13356;SDS011;6747;56.456;-3.120;2022-10-31T18:11:58;7.05;;;2.60;;
13356;SDS011;6747;56.456;-3.120;2022-10-31T18:14:25;3.42;;;2.38;;
13356;SDS011;6747;56.456;-3.120;2022-10-31T18:16:53;3.70;;;2.28;;
13356;SDS011;6747;56.456;-3.120;2022-10-31T18:19:20;7.18;;;2.63;;
13356;SDS011;6747;56.456;-3.120;2022-10-31T18:24:24;8.55;;;2.30;;
13356;SDS011;6747;56.456;-3.120;2022-10-31T18:26:52;7.05;;;1.58;;
13356;SDS011;6747;56.456;-3.120;2022-10-31T18:29:20;7.47;;;1.73;;
13356;SDS011;6747;56.456;-3.120;2022-10-31T18:31:47;6.75;;;1.83;;
13356;SDS011;6747;56.456;-3.120;2022-10-31T18:37:04;7.05;;;2.53;;
13356;SDS011;6747;56.456;-3.120;2022-10-31T18:39:33;6.65;;;2.17;;
13356;SDS011;6747;56.456;-3.120;2022-10-31T18:42:00;6.32;;;2.08;;
13356;SDS011;6747;56.456;-3.120;2022-10-31T18:47:14;5.63;;;1.83;;
13356;SDS011;6747;56.456;-3.120;2022-10-31T18:49:43;6.85;;;1.92;;
13356;SDS011;6747;56.456;-3.120;2022-10-31T18:52:10;4.38;;;1.50;;
13356;SDS011;6747;56.456;-3.120;2022-10-31T18:54:39;7.78;;;1.77;;
13356;SDS011;6747;56.456;-3.120;2022-10-31T18:57:06;5.45;;;1.90;;
13356;SDS011;6747;56.456;-3.120;2022-10-31T18:59:34;3.50;;;1.67;;
13356;SDS011;6747;56.456;-3.120;2022-10-31T19:02:01;8.13;;;2.50;;
13356;SDS011;6747;56.456;-3.120;2022-10-31T19:07:16;3.95;;;2.33;;
13356;SDS011;6747;56.456;-3.120;2022-10-31T19:09:45;5.30;;;1.75;;
13356;SDS011;6747;56.456;-3.120;2022-10-31T19:12:12;5.30;;;1.80;;
13356;SDS011;6747;56.456;-3.120;2022-10-31T19:17:25;12.10;;;1.80;;
13356;SDS011;6747;56.456;-3.120;2022-10-31T19:19:53;6.18;;;1.80;;
13356;SDS011;6747;56.456;-3.120;2022-10-31T19:22:20;4.10;;;1.60;;
13356;SDS011;6747;56.456;-3.120;2022-10-31T19:27:39;5.30;;;4.00;;
13356;SDS011;6747;56.456;-3.120;2022-10-31T19:30:07;7.57;;;3.83;;
13356;SDS011;6747;56.456;-3.120;2022-10-31T19:32:34;5.28;;;2.03;;
13356;SDS011;6747;56.456;-3.120;2022-10-31T19:35:02;2.47;;;1.52;;
13356;SDS011;6747;56.456;-3.120;2022-10-31T19:37:33;5.70;;;2.33;;
13356;SDS011;6747;56.456;-3.120;2022-10-31T19:40:00;3.92;;;1.77;;
13356;SDS011;6747;56.456;-3.120;2022-10-31T19:42:28;6.35;;;1.70;;
13356;SDS011;6747;56.456;-3.120;2022-10-31T19:50:50;6.22;;;2.53;;
13356;SDS011;6747;56.456;-3.120;2022-10-31T19:53:18;7.60;;;3.28;;
13356;SDS011;6747;56.456;-3.120;2022-10-31T19:58:49;4.43;;;2.28;;
13356;SDS011;6747;56.456;-3.120;2022-10-31T20:01:17;4.65;;;2.40;;
13356;SDS011;6747;56.456;-3.120;2022-10-31T20:09:35;6.43;;;2.15;;